sensor_id;sensor_type;location;lat;lon;timestamp;P1;durP1;ratioP1;P2;durP2;ratioP2
70733;SDS011;58320;48.804;9.252;2023-08-01T00:02:22;7.10;;;3.40;;
70733;SDS011;58320;48.804;9.252;2023-08-01T00:04:48;6.22;;;3.20;;
70733;SDS011;58320;48.804;9.252;2023-08-01T00:07:14;7.83;;;3.57;;
70733;SDS011;58320;48.804;9.252;2023-08-01T00:09:39;7.00;;;3.15;;
70733;SDS011;58320;48.804;9.252;2023-08-01T00:12:05;5.57;;;3.37;;
70733;SDS011;58320;48.804;9.252;2023-08-01T00:14:31;7.05;;;3.22;;
70733;SDS011;58320;48.804;9.252;2023-08-01T00:16:57;7.25;;;3.15;;
70733;SDS011;58320;48.804;9.252;2023-08-01T00:19:23;7.20;;;3.40;;
70733;SDS011;58320;48.804;9.252;2023-08-01T00:21:49;8.10;;;3.57;;
70733;SDS011;58320;48.804;9.252;2023-08-01T00:24:14;8.60;;;3.83;;
70733;SDS011;58320;48.804;9.252;2023-08-01T00:26:40;6.47;;;3.40;;
70733;SDS011;58320;48.804;9.252;2023-08-01T00:29:06;6.88;;;3.35;;
70733;SDS011;58320;48.804;9.252;2023-08-01T00:31:32;7.63;;;3.85;;
70733;SDS011;58320;48.804;9.252;2023-08-01T00:33:58;9.00;;;3.53;;
70733;SDS011;58320;48.804;9.252;2023-08-01T00:36:24;8.02;;;3.63;;
70733;SDS011;58320;48.804;9.252;2023-08-01T00:38:49;7.17;;;3.77;;
70733;SDS011;58320;48.804;9.252;2023-08-01T00:41:15;7.97;;;3.30;;
70733;SDS011;58320;48.804;9.252;2023-08-01T00:43:41;9.10;;;3.63;;
70733;SDS011;58320;48.804;9.252;2023-08-01T00:46:06;7.70;;;3.63;;
70733;SDS011;58320;48.804;9.252;2023-08-01T00:48:33;7.38;;;3.95;;
70733;SDS011;58320;48.804;9.252;2023-08-01T00:51:01;7.38;;;3.65;;
70733;SDS011;58320;48.804;9.252;2023-08-01T00:53:30;7.07;;;3.70;;
70733;SDS011;58320;48.804;9.252;2023-08-01T00:55:57;7.65;;;3.67;;
70733;SDS011;58320;48.804;9.252;2023-08-01T00:58:23;8.15;;;3.42;;
70733;SDS011;58320;48.804;9.252;2023-08-01T01:00:49;7.13;;;3.67;;
70733;SDS011;58320;48.804;9.252;2023-08-01T01:03:15;8.60;;;4.23;;
70733;SDS011;58320;48.804;9.252;2023-08-01T01:08:36;7.93;;;3.75;;
70733;SDS011;58320;48.804;9.252;2023-08-01T01:11:01;7.25;;;3.47;;
70733;SDS011;58320;48.804;9.252;2023-08-01T01:13:29;7.87;;;3.50;;
70733;SDS011;58320;48.804;9.252;2023-08-01T01:15:55;9.10;;;3.88;;
70733;SDS011;58320;48.804;9.252;2023-08-01T01:18:21;6.88;;;3.85;;
70733;SDS011;58320;48.804;9.252;2023-08-01T01:20:46;7.20;;;3.87;;
70733;SDS011;58320;48.804;9.252;2023-08-01T01:23:12;8.48;;;3.60;;
70733;SDS011;58320;48.804;9.252;2023-08-01T01:25:38;7.33;;;4.60;;
70733;SDS011;58320;48.804;9.252;2023-08-01T01:28:05;8.88;;;4.00;;
70733;SDS011;58320;48.804;9.252;2023-08-01T01:30:32;7.82;;;3.83;;
70733;SDS011;58320;48.804;9.252;2023-08-01T01:33:02;6.63;;;3.42;;
70733;SDS011;58320;48.804;9.252;2023-08-01T01:35:28;8.45;;;3.75;;
70733;SDS011;58320;48.804;9.252;2023-08-01T01:37:55;8.43;;;3.67;;
70733;SDS011;58320;48.804;9.252;2023-08-01T01:40:20;10.18;;;3.67;;
70733;SDS011;58320;48.804;9.252;2023-08-01T01:42:46;7.20;;;3.60;;
70733;SDS011;58320;48.804;9.252;2023-08-01T01:45:14;6.77;;;3.60;;
70733;SDS011;58320;48.804;9.252;2023-08-01T01:47:40;8.27;;;4.10;;
70733;SDS011;58320;48.804;9.252;2023-08-01T01:50:05;7.88;;;3.92;;
70733;SDS011;58320;48.804;9.252;2023-08-01T01:52:32;7.17;;;3.73;;
70733;SDS011;58320;48.804;9.252;2023-08-01T01:54:58;6.47;;;3.67;;
70733;SDS011;58320;48.804;9.252;2023-08-01T01:57:24;7.65;;;4.30;;
70733;SDS011;58320;48.804;9.252;2023-08-01T01:59:50;9.25;;;3.90;;
70733;SDS011;58320;48.804;9.252;2023-08-01T02:02:16;6.63;;;3.53;;
70733;SDS011;58320;48.804;9.252;2023-08-01T02:04:41;8.20;;;3.95;;
70733;SDS011;58320;48.804;9.252;2023-08-01T02:07:07;10.83;;;3.67;;
70733;SDS011;58320;48.804;9.252;2023-08-01T02:09:33;9.18;;;4.47;;
70733;SDS011;58320;48.804;9.252;2023-08-01T02:11:59;7.95;;;4.05;;
70733;SDS011;58320;48.804;9.252;2023-08-01T02:14:24;7.97;;;4.00;;
70733;SDS011;58320;48.804;9.252;2023-08-01T02:16:50;8.07;;;4.38;;
70733;SDS011;58320;48.804;9.252;2023-08-01T02:19:16;7.33;;;3.60;;
70733;SDS011;58320;48.804;9.252;2023-08-01T02:21:41;7.18;;;3.83;;
70733;SDS011;58320;48.804;9.252;2023-08-01T02:24:07;6.17;;;3.77;;
70733;SDS011;58320;48.804;9.252;2023-08-01T02:26:33;7.32;;;3.45;;
70733;SDS011;58320;48.804;9.252;2023-08-01T02:28:59;8.90;;;3.87;;
70733;SDS011;58320;48.804;9.252;2023-08-01T02:31:24;7.30;;;4.22;;
70733;SDS011;58320;48.804;9.252;2023-08-01T02:33:50;7.23;;;3.70;;
70733;SDS011;58320;48.804;9.252;2023-08-01T02:36:16;10.05;;;4.22;;
70733;SDS011;58320;48.804;9.252;2023-08-01T02:38:41;8.10;;;3.50;;
70733;SDS011;58320;48.804;9.252;2023-08-01T02:41:07;7.50;;;3.67;;
70733;SDS011;58320;48.804;9.252;2023-08-01T02:43:33;8.93;;;4.15;;
70733;SDS011;58320;48.804;9.252;2023-08-01T02:46:01;7.90;;;3.87;;
70733;SDS011;58320;48.804;9.252;2023-08-01T02:48:27;8.60;;;3.83;;
70733;SDS011;58320;48.804;9.252;2023-08-01T02:50:52;8.32;;;3.97;;
70733;SDS011;58320;48.804;9.252;2023-08-01T02:53:18;7.73;;;3.60;;
70733;SDS011;58320;48.804;9.252;2023-08-01T02:55:44;7.03;;;3.67;;
70733;SDS011;58320;48.804;9.252;2023-08-01T02:58:12;7.03;;;3.70;;
70733;SDS011;58320;48.804;9.252;2023-08-01T03:00:38;6.63;;;3.33;;
70733;SDS011;58320;48.804;9.252;2023-08-01T03:03:05;6.22;;;3.60;;
70733;SDS011;58320;48.804;9.252;2023-08-01T03:05:31;6.88;;;3.65;;
70733;SDS011;58320;48.804;9.252;2023-08-01T03:07:59;7.70;;;3.17;;
70733;SDS011;58320;48.804;9.252;2023-08-01T03:10:25;8.70;;;3.30;;
70733;SDS011;58320;48.804;9.252;2023-08-01T03:12:50;8.65;;;3.70;;
70733;SDS011;58320;48.804;9.252;2023-08-01T03:15:16;5.77;;;3.30;;
70733;SDS011;58320;48.804;9.252;2023-08-01T03:17:42;6.07;;;3.47;;
70733;SDS011;58320;48.804;9.252;2023-08-01T03:20:07;7.97;;;3.47;;
70733;SDS011;58320;48.804;9.252;2023-08-01T03:22:36;7.57;;;3.88;;
70733;SDS011;58320;48.804;9.252;2023-08-01T03:25:05;9.68;;;4.03;;
70733;SDS011;58320;48.804;9.252;2023-08-01T03:27:35;6.72;;;3.15;;
70733;SDS011;58320;48.804;9.252;2023-08-01T03:30:01;6.45;;;3.58;;
70733;SDS011;58320;48.804;9.252;2023-08-01T03:32:29;7.03;;;3.40;;
70733;SDS011;58320;48.804;9.252;2023-08-01T03:34:55;8.48;;;3.53;;
70733;SDS011;58320;48.804;9.252;2023-08-01T03:37:21;9.75;;;3.85;;
70733;SDS011;58320;48.804;9.252;2023-08-01T03:39:47;7.25;;;3.83;;
70733;SDS011;58320;48.804;9.252;2023-08-01T03:42:12;8.87;;;3.57;;
70733;SDS011;58320;48.804;9.252;2023-08-01T03:44:38;7.72;;;3.90;;
70733;SDS011;58320;48.804;9.252;2023-08-01T03:47:04;7.40;;;4.00;;
70733;SDS011;58320;48.804;9.252;2023-08-01T03:49:31;7.68;;;3.90;;
70733;SDS011;58320;48.804;9.252;2023-08-01T03:51:57;9.23;;;3.55;;
70733;SDS011;58320;48.804;9.252;2023-08-01T03:54:23;5.90;;;3.50;;
70733;SDS011;58320;48.804;9.252;2023-08-01T03:56:49;9.82;;;3.92;;
70733;SDS011;58320;48.804;9.252;2023-08-01T03:59:15;7.57;;;3.93;;
70733;SDS011;58320;48.804;9.252;2023-08-01T04:01:41;6.65;;;3.63;;
70733;SDS011;58320;48.804;9.252;2023-08-01T04:04:07;8.93;;;3.47;;
70733;SDS011;58320;48.804;9.252;2023-08-01T04:06:34;6.30;;;3.53;;
70733;SDS011;58320;48.804;9.252;2023-08-01T04:08:59;8.80;;;3.70;;
70733;SDS011;58320;48.804;9.252;2023-08-01T04:11:25;5.78;;;3.22;;
70733;SDS011;58320;48.804;9.252;2023-08-01T04:13:52;7.10;;;3.08;;
70733;SDS011;58320;48.804;9.252;2023-08-01T04:16:18;5.93;;;2.80;;
70733;SDS011;58320;48.804;9.252;2023-08-01T04:18:44;6.43;;;3.03;;
70733;SDS011;58320;48.804;9.252;2023-08-01T04:21:11;6.05;;;3.10;;
70733;SDS011;58320;48.804;9.252;2023-08-01T04:23:39;8.20;;;3.10;;
70733;SDS011;58320;48.804;9.252;2023-08-01T04:26:05;10.90;;;3.40;;
70733;SDS011;58320;48.804;9.252;2023-08-01T04:28:32;6.47;;;3.25;;
70733;SDS011;58320;48.804;9.252;2023-08-01T04:30:58;6.57;;;3.10;;
70733;SDS011;58320;48.804;9.252;2023-08-01T04:33:24;7.27;;;3.80;;
70733;SDS011;58320;48.804;9.252;2023-08-01T04:35:50;6.47;;;3.22;;
70733;SDS011;58320;48.804;9.252;2023-08-01T04:38:16;6.22;;;3.17;;
70733;SDS011;58320;48.804;9.252;2023-08-01T04:40:42;6.20;;;3.23;;
70733;SDS011;58320;48.804;9.252;2023-08-01T04:43:08;8.43;;;3.08;;
70733;SDS011;58320;48.804;9.252;2023-08-01T04:45:34;7.55;;;3.10;;
70733;SDS011;58320;48.804;9.252;2023-08-01T04:48:00;7.63;;;3.15;;
70733;SDS011;58320;48.804;9.252;2023-08-01T04:50:26;5.30;;;3.10;;
70733;SDS011;58320;48.804;9.252;2023-08-01T04:52:52;6.25;;;3.08;;
70733;SDS011;58320;48.804;9.252;2023-08-01T04:55:18;5.60;;;3.00;;
70733;SDS011;58320;48.804;9.252;2023-08-01T04:57:43;6.83;;;3.03;;
70733;SDS011;58320;48.804;9.252;2023-08-01T05:00:09;7.68;;;2.90;;
70733;SDS011;58320;48.804;9.252;2023-08-01T05:02:36;5.70;;;3.00;;
70733;SDS011;58320;48.804;9.252;2023-08-01T05:05:02;4.77;;;2.57;;
70733;SDS011;58320;48.804;9.252;2023-08-01T05:07:29;5.20;;;2.50;;
70733;SDS011;58320;48.804;9.252;2023-08-01T05:09:55;6.93;;;2.97;;
70733;SDS011;58320;48.804;9.252;2023-08-01T05:12:21;7.72;;;2.92;;
70733;SDS011;58320;48.804;9.252;2023-08-01T05:14:46;7.67;;;2.90;;
70733;SDS011;58320;48.804;9.252;2023-08-01T05:17:12;5.80;;;2.88;;
70733;SDS011;58320;48.804;9.252;2023-08-01T05:19:38;5.95;;;2.55;;
70733;SDS011;58320;48.804;9.252;2023-08-01T05:22:04;5.13;;;2.53;;
70733;SDS011;58320;48.804;9.252;2023-08-01T05:24:30;5.18;;;2.40;;
70733;SDS011;58320;48.804;9.252;2023-08-01T05:26:56;6.37;;;2.57;;
70733;SDS011;58320;48.804;9.252;2023-08-01T05:29:22;5.50;;;2.80;;
70733;SDS011;58320;48.804;9.252;2023-08-01T05:31:48;5.28;;;2.40;;
70733;SDS011;58320;48.804;9.252;2023-08-01T05:34:13;6.03;;;2.47;;
70733;SDS011;58320;48.804;9.252;2023-08-01T05:36:39;4.85;;;2.40;;
70733;SDS011;58320;48.804;9.252;2023-08-01T05:39:05;5.63;;;2.67;;
70733;SDS011;58320;48.804;9.252;2023-08-01T05:41:31;5.38;;;2.38;;
70733;SDS011;58320;48.804;9.252;2023-08-01T05:43:57;5.03;;;2.53;;
70733;SDS011;58320;48.804;9.252;2023-08-01T05:46:23;5.10;;;2.27;;
70733;SDS011;58320;48.804;9.252;2023-08-01T05:48:49;6.07;;;2.50;;
70733;SDS011;58320;48.804;9.252;2023-08-01T05:51:15;5.73;;;2.77;;
70733;SDS011;58320;48.804;9.252;2023-08-01T05:53:41;5.65;;;2.58;;
70733;SDS011;58320;48.804;9.252;2023-08-01T05:56:06;5.07;;;2.42;;
70733;SDS011;58320;48.804;9.252;2023-08-01T05:58:32;5.17;;;2.70;;
70733;SDS011;58320;48.804;9.252;2023-08-01T06:00:58;7.18;;;2.60;;
70733;SDS011;58320;48.804;9.252;2023-08-01T06:03:24;4.70;;;2.63;;
70733;SDS011;58320;48.804;9.252;2023-08-01T06:05:49;5.47;;;2.30;;
70733;SDS011;58320;48.804;9.252;2023-08-01T06:08:15;8.55;;;2.85;;
70733;SDS011;58320;48.804;9.252;2023-08-01T06:10:41;7.43;;;2.90;;
70733;SDS011;58320;48.804;9.252;2023-08-01T06:13:07;6.70;;;2.80;;
70733;SDS011;58320;48.804;9.252;2023-08-01T06:15:33;7.93;;;3.10;;
70733;SDS011;58320;48.804;9.252;2023-08-01T06:17:59;6.65;;;3.22;;
70733;SDS011;58320;48.804;9.252;2023-08-01T06:20:27;7.95;;;3.40;;
70733;SDS011;58320;48.804;9.252;2023-08-01T06:22:52;6.07;;;2.90;;
70733;SDS011;58320;48.804;9.252;2023-08-01T06:25:18;6.65;;;3.33;;
70733;SDS011;58320;48.804;9.252;2023-08-01T06:27:44;6.50;;;3.03;;
70733;SDS011;58320;48.804;9.252;2023-08-01T06:30:10;5.50;;;2.80;;
70733;SDS011;58320;48.804;9.252;2023-08-01T06:32:36;8.18;;;3.67;;
70733;SDS011;58320;48.804;9.252;2023-08-01T06:35:02;6.37;;;3.73;;
70733;SDS011;58320;48.804;9.252;2023-08-01T06:37:28;8.43;;;3.77;;
70733;SDS011;58320;48.804;9.252;2023-08-01T06:39:54;7.35;;;3.60;;
70733;SDS011;58320;48.804;9.252;2023-08-01T06:42:22;7.75;;;4.18;;
70733;SDS011;58320;48.804;9.252;2023-08-01T06:44:47;8.10;;;3.80;;
70733;SDS011;58320;48.804;9.252;2023-08-01T06:47:13;9.68;;;4.40;;
70733;SDS011;58320;48.804;9.252;2023-08-01T06:49:39;7.30;;;3.90;;
70733;SDS011;58320;48.804;9.252;2023-08-01T06:52:05;9.45;;;4.10;;
70733;SDS011;58320;48.804;9.252;2023-08-01T06:54:31;10.00;;;4.60;;
70733;SDS011;58320;48.804;9.252;2023-08-01T06:56:57;9.63;;;4.17;;
70733;SDS011;58320;48.804;9.252;2023-08-01T06:59:24;10.15;;;4.38;;
70733;SDS011;58320;48.804;9.252;2023-08-01T07:01:50;9.65;;;4.70;;
70733;SDS011;58320;48.804;9.252;2023-08-01T07:04:16;10.87;;;4.93;;
70733;SDS011;58320;48.804;9.252;2023-08-01T07:06:42;9.70;;;4.88;;
70733;SDS011;58320;48.804;9.252;2023-08-01T07:09:08;11.38;;;5.68;;
70733;SDS011;58320;48.804;9.252;2023-08-01T07:11:35;12.30;;;5.57;;
70733;SDS011;58320;48.804;9.252;2023-08-01T07:14:01;9.97;;;5.70;;
70733;SDS011;58320;48.804;9.252;2023-08-01T07:16:26;11.15;;;5.80;;
70733;SDS011;58320;48.804;9.252;2023-08-01T07:18:52;12.53;;;5.20;;
70733;SDS011;58320;48.804;9.252;2023-08-01T07:21:20;17.00;;;5.45;;
70733;SDS011;58320;48.804;9.252;2023-08-01T07:23:45;11.98;;;5.63;;
70733;SDS011;58320;48.804;9.252;2023-08-01T07:26:13;12.10;;;5.05;;
70733;SDS011;58320;48.804;9.252;2023-08-01T07:28:39;10.67;;;5.63;;
70733;SDS011;58320;48.804;9.252;2023-08-01T07:31:05;10.15;;;4.93;;
70733;SDS011;58320;48.804;9.252;2023-08-01T07:33:32;10.48;;;5.47;;
70733;SDS011;58320;48.804;9.252;2023-08-01T07:35:58;12.65;;;5.30;;
70733;SDS011;58320;48.804;9.252;2023-08-01T07:38:25;14.57;;;5.40;;
70733;SDS011;58320;48.804;9.252;2023-08-01T07:40:54;19.23;;;6.95;;
70733;SDS011;58320;48.804;9.252;2023-08-01T07:43:20;13.35;;;5.90;;
70733;SDS011;58320;48.804;9.252;2023-08-01T07:45:46;10.63;;;5.57;;
70733;SDS011;58320;48.804;9.252;2023-08-01T07:48:15;11.30;;;5.80;;
70733;SDS011;58320;48.804;9.252;2023-08-01T07:50:41;12.32;;;5.20;;
70733;SDS011;58320;48.804;9.252;2023-08-01T07:53:07;11.02;;;5.30;;
70733;SDS011;58320;48.804;9.252;2023-08-01T07:55:33;10.50;;;5.13;;
70733;SDS011;58320;48.804;9.252;2023-08-01T07:58:00;8.90;;;4.93;;
70733;SDS011;58320;48.804;9.252;2023-08-01T08:00:26;9.27;;;4.05;;
70733;SDS011;58320;48.804;9.252;2023-08-01T08:02:52;9.63;;;4.50;;
70733;SDS011;58320;48.804;9.252;2023-08-01T08:05:19;10.43;;;4.70;;
70733;SDS011;58320;48.804;9.252;2023-08-01T08:07:44;8.10;;;4.10;;
70733;SDS011;58320;48.804;9.252;2023-08-01T08:10:10;7.73;;;4.60;;
70733;SDS011;58320;48.804;9.252;2023-08-01T08:12:36;7.97;;;3.80;;
70733;SDS011;58320;48.804;9.252;2023-08-01T08:15:02;7.07;;;3.50;;
70733;SDS011;58320;48.804;9.252;2023-08-01T08:17:28;7.07;;;3.63;;
70733;SDS011;58320;48.804;9.252;2023-08-01T08:19:54;6.60;;;3.40;;
70733;SDS011;58320;48.804;9.252;2023-08-01T08:22:19;7.05;;;3.53;;
70733;SDS011;58320;48.804;9.252;2023-08-01T08:24:45;7.67;;;3.33;;
70733;SDS011;58320;48.804;9.252;2023-08-01T08:27:11;8.30;;;2.80;;
70733;SDS011;58320;48.804;9.252;2023-08-01T08:29:37;8.73;;;3.28;;
70733;SDS011;58320;48.804;9.252;2023-08-01T08:32:03;6.20;;;3.07;;
70733;SDS011;58320;48.804;9.252;2023-08-01T08:34:30;6.88;;;2.75;;
70733;SDS011;58320;48.804;9.252;2023-08-01T08:36:55;6.27;;;3.10;;
70733;SDS011;58320;48.804;9.252;2023-08-01T08:39:21;5.88;;;2.90;;
70733;SDS011;58320;48.804;9.252;2023-08-01T08:41:48;6.70;;;3.27;;
70733;SDS011;58320;48.804;9.252;2023-08-01T08:44:17;6.82;;;3.30;;
70733;SDS011;58320;48.804;9.252;2023-08-01T08:46:47;5.65;;;3.05;;
70733;SDS011;58320;48.804;9.252;2023-08-01T08:49:22;5.95;;;3.10;;
70733;SDS011;58320;48.804;9.252;2023-08-01T08:51:49;5.97;;;2.67;;
70733;SDS011;58320;48.804;9.252;2023-08-01T08:56:44;6.47;;;2.53;;
70733;SDS011;58320;48.804;9.252;2023-08-01T08:59:11;4.72;;;2.50;;
70733;SDS011;58320;48.804;9.252;2023-08-01T09:01:37;5.32;;;2.60;;
70733;SDS011;58320;48.804;9.252;2023-08-01T09:04:04;5.50;;;2.70;;
70733;SDS011;58320;48.804;9.252;2023-08-01T09:06:31;4.88;;;2.50;;
70733;SDS011;58320;48.804;9.252;2023-08-01T09:09:06;4.93;;;2.60;;
70733;SDS011;58320;48.804;9.252;2023-08-01T09:11:46;5.88;;;2.30;;
70733;SDS011;58320;48.804;9.252;2023-08-01T09:14:14;4.55;;;2.20;;
70733;SDS011;58320;48.804;9.252;2023-08-01T09:16:41;5.43;;;2.23;;
70733;SDS011;58320;48.804;9.252;2023-08-01T09:19:08;5.15;;;2.20;;
70733;SDS011;58320;48.804;9.252;2023-08-01T09:21:35;4.15;;;2.00;;
70733;SDS011;58320;48.804;9.252;2023-08-01T09:24:11;4.07;;;1.92;;
70733;SDS011;58320;48.804;9.252;2023-08-01T09:26:42;7.35;;;2.30;;
70733;SDS011;58320;48.804;9.252;2023-08-01T09:29:09;5.03;;;2.10;;
70733;SDS011;58320;48.804;9.252;2023-08-01T09:31:36;4.68;;;1.90;;
70733;SDS011;58320;48.804;9.252;2023-08-01T09:34:17;6.32;;;2.40;;
70733;SDS011;58320;48.804;9.252;2023-08-01T09:36:45;3.95;;;1.92;;
70733;SDS011;58320;48.804;9.252;2023-08-01T09:39:15;4.40;;;2.20;;
70733;SDS011;58320;48.804;9.252;2023-08-01T09:41:46;3.83;;;2.00;;
70733;SDS011;58320;48.804;9.252;2023-08-01T09:44:22;5.20;;;2.15;;
70733;SDS011;58320;48.804;9.252;2023-08-01T09:46:57;3.95;;;1.80;;
70733;SDS011;58320;48.804;9.252;2023-08-01T09:49:25;4.05;;;2.10;;
70733;SDS011;58320;48.804;9.252;2023-08-01T09:51:52;3.55;;;1.73;;
70733;SDS011;58320;48.804;9.252;2023-08-01T09:54:18;3.30;;;1.40;;
70733;SDS011;58320;48.804;9.252;2023-08-01T09:56:45;4.63;;;1.95;;
70733;SDS011;58320;48.804;9.252;2023-08-01T09:59:15;4.78;;;1.42;;
70733;SDS011;58320;48.804;9.252;2023-08-01T10:01:50;4.43;;;1.58;;
70733;SDS011;58320;48.804;9.252;2023-08-01T10:04:22;4.13;;;1.37;;
70733;SDS011;58320;48.804;9.252;2023-08-01T10:06:57;4.00;;;1.70;;
70733;SDS011;58320;48.804;9.252;2023-08-01T10:09:24;4.50;;;1.30;;
70733;SDS011;58320;48.804;9.252;2023-08-01T10:11:51;4.35;;;1.20;;
70733;SDS011;58320;48.804;9.252;2023-08-01T10:14:19;3.03;;;1.10;;
70733;SDS011;58320;48.804;9.252;2023-08-01T10:16:46;3.00;;;1.00;;
70733;SDS011;58320;48.804;9.252;2023-08-01T10:19:12;2.40;;;0.77;;
70733;SDS011;58320;48.804;9.252;2023-08-01T10:21:39;3.92;;;1.30;;
70733;SDS011;58320;48.804;9.252;2023-08-01T10:24:07;2.17;;;0.80;;
70733;SDS011;58320;48.804;9.252;2023-08-01T10:26:34;2.60;;;0.90;;
70733;SDS011;58320;48.804;9.252;2023-08-01T10:29:00;2.57;;;1.10;;
70733;SDS011;58320;48.804;9.252;2023-08-01T10:31:27;2.15;;;0.90;;
70733;SDS011;58320;48.804;9.252;2023-08-01T10:34:02;2.13;;;0.70;;
70733;SDS011;58320;48.804;9.252;2023-08-01T10:36:38;2.20;;;1.00;;
70733;SDS011;58320;48.804;9.252;2023-08-01T10:39:04;2.63;;;0.70;;
70733;SDS011;58320;48.804;9.252;2023-08-01T10:41:36;1.70;;;0.70;;
70733;SDS011;58320;48.804;9.252;2023-08-01T10:44:10;1.55;;;0.70;;
70733;SDS011;58320;48.804;9.252;2023-08-01T10:49:14;2.00;;;0.70;;
70733;SDS011;58320;48.804;9.252;2023-08-01T10:51:41;2.00;;;0.70;;
70733;SDS011;58320;48.804;9.252;2023-08-01T10:54:17;2.77;;;0.83;;
70733;SDS011;58320;48.804;9.252;2023-08-01T10:56:48;2.60;;;0.95;;
70733;SDS011;58320;48.804;9.252;2023-08-01T10:59:16;2.10;;;0.93;;
70733;SDS011;58320;48.804;9.252;2023-08-01T11:01:47;3.28;;;0.80;;
70733;SDS011;58320;48.804;9.252;2023-08-01T11:04:18;1.70;;;0.80;;
70733;SDS011;58320;48.804;9.252;2023-08-01T11:06:49;3.67;;;1.00;;
70733;SDS011;58320;48.804;9.252;2023-08-01T11:09:22;2.17;;;0.70;;
70733;SDS011;58320;48.804;9.252;2023-08-01T11:11:55;3.10;;;0.70;;
70733;SDS011;58320;48.804;9.252;2023-08-01T11:14:25;2.13;;;1.00;;
70733;SDS011;58320;48.804;9.252;2023-08-01T11:16:53;2.63;;;1.08;;
70733;SDS011;58320;48.804;9.252;2023-08-01T11:19:22;2.27;;;1.20;;
70733;SDS011;58320;48.804;9.252;2023-08-01T11:21:53;2.78;;;0.80;;
70733;SDS011;58320;48.804;9.252;2023-08-01T11:24:23;2.10;;;0.90;;
70733;SDS011;58320;48.804;9.252;2023-08-01T11:26:51;3.13;;;1.05;;
70733;SDS011;58320;48.804;9.252;2023-08-01T11:29:19;2.28;;;0.93;;
70733;SDS011;58320;48.804;9.252;2023-08-01T11:31:58;2.00;;;0.70;;
70733;SDS011;58320;48.804;9.252;2023-08-01T11:34:25;2.67;;;0.88;;
70733;SDS011;58320;48.804;9.252;2023-08-01T11:36:51;2.90;;;1.00;;
70733;SDS011;58320;48.804;9.252;2023-08-01T11:39:17;2.90;;;1.00;;
70733;SDS011;58320;48.804;9.252;2023-08-01T11:41:44;2.30;;;1.00;;
70733;SDS011;58320;48.804;9.252;2023-08-01T11:44:12;2.60;;;1.07;;
70733;SDS011;58320;48.804;9.252;2023-08-01T11:46:44;2.37;;;1.00;;
70733;SDS011;58320;48.804;9.252;2023-08-01T11:49:13;2.25;;;1.17;;
70733;SDS011;58320;48.804;9.252;2023-08-01T11:51:40;3.03;;;1.60;;
70733;SDS011;58320;48.804;9.252;2023-08-01T11:54:08;2.55;;;1.20;;
70733;SDS011;58320;48.804;9.252;2023-08-01T11:56:36;3.75;;;1.20;;
70733;SDS011;58320;48.804;9.252;2023-08-01T11:59:16;3.90;;;1.30;;
70733;SDS011;58320;48.804;9.252;2023-08-01T12:01:43;3.30;;;1.20;;
70733;SDS011;58320;48.804;9.252;2023-08-01T12:04:11;2.83;;;1.00;;
70733;SDS011;58320;48.804;9.252;2023-08-01T12:06:48;3.47;;;1.20;;
70733;SDS011;58320;48.804;9.252;2023-08-01T12:09:14;2.93;;;1.00;;
70733;SDS011;58320;48.804;9.252;2023-08-01T12:11:40;2.50;;;1.20;;
70733;SDS011;58320;48.804;9.252;2023-08-01T12:14:07;2.78;;;1.00;;
70733;SDS011;58320;48.804;9.252;2023-08-01T12:16:44;2.63;;;1.30;;
70733;SDS011;58320;48.804;9.252;2023-08-01T12:19:17;3.03;;;1.00;;
70733;SDS011;58320;48.804;9.252;2023-08-01T12:21:45;3.88;;;1.00;;
70733;SDS011;58320;48.804;9.252;2023-08-01T12:24:11;2.78;;;1.10;;
70733;SDS011;58320;48.804;9.252;2023-08-01T12:26:37;2.63;;;1.30;;
70733;SDS011;58320;48.804;9.252;2023-08-01T12:29:02;4.03;;;1.47;;
70733;SDS011;58320;48.804;9.252;2023-08-01T12:31:28;3.53;;;1.25;;
70733;SDS011;58320;48.804;9.252;2023-08-01T12:33:54;2.40;;;1.10;;
70733;SDS011;58320;48.804;9.252;2023-08-01T12:36:20;3.53;;;1.17;;
70733;SDS011;58320;48.804;9.252;2023-08-01T12:38:46;2.22;;;0.90;;
70733;SDS011;58320;48.804;9.252;2023-08-01T12:41:12;3.40;;;1.13;;
70733;SDS011;58320;48.804;9.252;2023-08-01T12:43:37;2.80;;;1.33;;
70733;SDS011;58320;48.804;9.252;2023-08-01T12:46:03;2.83;;;1.30;;
70733;SDS011;58320;48.804;9.252;2023-08-01T12:48:29;2.47;;;1.27;;
70733;SDS011;58320;48.804;9.252;2023-08-01T12:50:55;3.15;;;1.25;;
70733;SDS011;58320;48.804;9.252;2023-08-01T12:53:21;4.05;;;1.20;;
70733;SDS011;58320;48.804;9.252;2023-08-01T12:55:48;3.10;;;1.20;;
70733;SDS011;58320;48.804;9.252;2023-08-01T12:58:15;2.70;;;1.20;;
70733;SDS011;58320;48.804;9.252;2023-08-01T13:00:41;2.80;;;1.20;;
70733;SDS011;58320;48.804;9.252;2023-08-01T13:03:09;3.05;;;1.40;;
70733;SDS011;58320;48.804;9.252;2023-08-01T13:05:36;3.60;;;1.20;;
70733;SDS011;58320;48.804;9.252;2023-08-01T13:08:03;3.10;;;1.15;;
70733;SDS011;58320;48.804;9.252;2023-08-01T13:10:30;3.55;;;1.02;;
70733;SDS011;58320;48.804;9.252;2023-08-01T13:13:00;2.30;;;1.10;;
70733;SDS011;58320;48.804;9.252;2023-08-01T13:15:26;2.83;;;1.27;;
70733;SDS011;58320;48.804;9.252;2023-08-01T13:17:52;3.88;;;1.30;;
70733;SDS011;58320;48.804;9.252;2023-08-01T13:20:18;3.78;;;1.42;;
70733;SDS011;58320;48.804;9.252;2023-08-01T13:22:45;3.22;;;1.20;;
70733;SDS011;58320;48.804;9.252;2023-08-01T13:25:13;5.13;;;1.40;;
70733;SDS011;58320;48.804;9.252;2023-08-01T13:27:39;3.60;;;1.30;;
70733;SDS011;58320;48.804;9.252;2023-08-01T13:30:05;2.97;;;1.42;;
70733;SDS011;58320;48.804;9.252;2023-08-01T13:32:32;2.97;;;1.23;;
70733;SDS011;58320;48.804;9.252;2023-08-01T13:34:59;5.72;;;1.30;;
70733;SDS011;58320;48.804;9.252;2023-08-01T13:37:24;3.23;;;1.33;;
70733;SDS011;58320;48.804;9.252;2023-08-01T13:39:50;3.58;;;1.40;;
70733;SDS011;58320;48.804;9.252;2023-08-01T13:42:16;2.90;;;1.30;;
70733;SDS011;58320;48.804;9.252;2023-08-01T13:44:42;3.80;;;1.20;;
70733;SDS011;58320;48.804;9.252;2023-08-01T13:47:07;3.05;;;1.48;;
70733;SDS011;58320;48.804;9.252;2023-08-01T13:49:34;2.90;;;1.33;;
70733;SDS011;58320;48.804;9.252;2023-08-01T13:51:59;3.90;;;1.30;;
70733;SDS011;58320;48.804;9.252;2023-08-01T13:54:26;4.57;;;1.65;;
70733;SDS011;58320;48.804;9.252;2023-08-01T13:56:51;3.63;;;1.13;;
70733;SDS011;58320;48.804;9.252;2023-08-01T13:59:18;2.55;;;1.10;;
70733;SDS011;58320;48.804;9.252;2023-08-01T14:01:45;4.00;;;1.60;;
70733;SDS011;58320;48.804;9.252;2023-08-01T14:04:11;3.50;;;1.60;;
70733;SDS011;58320;48.804;9.252;2023-08-01T14:06:39;4.88;;;1.50;;
70733;SDS011;58320;48.804;9.252;2023-08-01T14:09:06;4.15;;;1.30;;
70733;SDS011;58320;48.804;9.252;2023-08-01T14:11:34;3.10;;;1.33;;
70733;SDS011;58320;48.804;9.252;2023-08-01T14:14:00;3.85;;;1.30;;
70733;SDS011;58320;48.804;9.252;2023-08-01T14:16:26;2.87;;;1.20;;
70733;SDS011;58320;48.804;9.252;2023-08-01T14:18:53;2.80;;;1.20;;
70733;SDS011;58320;48.804;9.252;2023-08-01T14:21:19;3.55;;;1.38;;
70733;SDS011;58320;48.804;9.252;2023-08-01T14:23:44;3.20;;;1.27;;
70733;SDS011;58320;48.804;9.252;2023-08-01T14:26:10;3.03;;;1.42;;
70733;SDS011;58320;48.804;9.252;2023-08-01T14:28:36;2.80;;;1.20;;
70733;SDS011;58320;48.804;9.252;2023-08-01T14:31:02;4.20;;;1.40;;
70733;SDS011;58320;48.804;9.252;2023-08-01T14:33:29;3.42;;;1.42;;
70733;SDS011;58320;48.804;9.252;2023-08-01T14:35:55;2.85;;;1.20;;
70733;SDS011;58320;48.804;9.252;2023-08-01T14:38:21;3.27;;;1.20;;
70733;SDS011;58320;48.804;9.252;2023-08-01T14:40:47;2.93;;;1.40;;
70733;SDS011;58320;48.804;9.252;2023-08-01T14:43:13;6.05;;;1.45;;
70733;SDS011;58320;48.804;9.252;2023-08-01T14:45:39;5.07;;;1.40;;
70733;SDS011;58320;48.804;9.252;2023-08-01T14:48:06;3.13;;;1.17;;
70733;SDS011;58320;48.804;9.252;2023-08-01T14:50:32;3.35;;;1.05;;
70733;SDS011;58320;48.804;9.252;2023-08-01T14:52:58;3.78;;;1.30;;